Aeroporto :
LOGIN :

Iscrizione | Disclaimer

   EN    FR    IT 

 










Sommario :    VFR   VFR Marginale   IFR   IFR Intensivo   IFR Molto Intensivo
Visibilità : 
Base nubi : 
>= 8 km
>= 3000ft
5 / 8 km
1000 / 3000 ft
1500m / 5 km
500 / 1000 ft
800 / 1500m
200 / 500 ft
< 800m
< 200 ft
Simboli :   Temporali  Nebbia  Neve Forte  Precipitazioni Forti  Vento > 20 kt
SIGMETs :   Varie  Temporali  Ghiacco  Turbolenza  Onda orograficha  Ceneri Vulcaniche






- Altitudine del aeroporto : 94 ft
- Codice IATA : QLT


LIRL - Latina Casale (military)

ULTIMO METAR :
  • 201655Z 11001KT 9999 SCT018 SCT030 12/10 Q1013 RMK BKN MON INVIS VAR RAPID VIS MIN 9999 WIND THR12 12001KT WIND THR30 16005KT BLU

METARs OBSOLETI :
  • 201555Z 15007KT 9999 SCT018 FEW020CB 13/11 Q1013 RMK BKN MON LIB NC VIS MIN 9999 WIND THR12 15007KT WIND THR30 15008KT BLU
  • 201455Z 06003KT 9999 SCT020 FEW025TCU 14/12 Q1013 RMK BKN MON LIB NC VIS MIN 9999 WIND THR12 06002KT WIND THR30 06002KT BLU

TAF TAF LIRL
Valido dal 20 a 15 ore il 21 a 00 ore UTC


201400Z 2015/2024 15005KT 9999 SCT020
PROB40 2015/2018 RA FEW025CB BKN020



MetMap, La meteo Aeronautica in un colpo d'occhio ! - Copyright ORBIFLY Dicembre 2007 - Disclaimer

ORBIFLY MET'MAP TEAM :

Programmazione e sviluppo : Alexandra Zaïnal
Concezione e sviluppo : Baudouin d'Aumeries
Co-Programmazione e sviluppo : Marc-Olivier Méhu
Supporto tecnico e logistico : Manuel Goepfert
Aiuto per la traduzione : Arnaldo La Scala

Contatto : metmap@orbifly.com




FONTI E CREDITI :

   NOAA